Talal Al-Mansour

Scout - Al-Ittihad
22 Feb 2028
Dienstag
Verarbeitung

Persönlichkeit

Anpassungsfähigkeit (4) Ehrgeiz (18) Kontroverse (11) Loyalität (6) Druck (9) Professionalität (10) Fairness (1) Temperament (2)

Profil

Trainerstil Demokratisch
Lizenz Kontinentale B
Entschlossenheit 12
Menschenführung 4
Motivation 10
Disziplin 12
Arbeitszufriedenheit
86%
Ermüdung
0%
Rolle Scout
Gehalt 23.2K p/W
Vertrag 14.03.2029

Leistung

Verhalten Gut
Trainingseffektivität
46%
Spielerentwicklung
20%
Verletzungsprävention
45%
Taktische Umsetzung
45%

Letzte Ereignisse

Nahm an einer Scouting-Besprechung teil jetzt
Nahm an einer Scouting-Besprechung teil 7T her
Empfahl ein Transferziel 7T her
Empfahl ein Transferziel 7T her
Nahm an einer Scouting-Besprechung teil 14T her
Empfahl ein Transferziel 14T her
Empfahl ein Transferziel 14T her
Empfahl ein Transferziel 21T her

Aktuell beobachtet

102
Spieler Verein Status Fähigkeit Vertrauen Beobachtet Zuletzt beobachtet Letzte Stimme
Emilio Di Fulvio Colegiales Aktiv 124 / 104 40% 1 05.01.2028 -
Mattia Perin Palermo Aktiv 142 / 138 40% 1 05.01.2028 -
Bruno Galván Almirante Brown Aktiv 98 / 112 40% 1 05.01.2028 -
Mohammad Alsalkhadi Damac Verloren 115 / 114 69% 1 01.01.2028 -
Lucas Acosta Aldosivi Aktiv 112 / 116 40% 1 31.12.2027 -
Mory Diaw Al-Fateh Aktiv 124 / 126 40% 1 31.12.2027 -
Akpan Nsikak-Abong Kun Khalifat Aktiv 92 / 81 40% 1 31.12.2027 -
Joel Ezra Enyimba Aktiv 88 / 105 40% 4 14.12.2027 -
Colin Guske Orlando City Aktiv 83 / 88 40% 6 14.12.2027 -
Dmitry Pestryakov Dinamo Moscow Aktiv 123 / 111 40% 3 14.12.2027 -
Daniel Banjaqui Benfica Aktiv 118 / 119 40% 1 11.12.2027 -
Zane Albarus Cambridge United Aktiv 109 / 101 40% 1 11.12.2027 -
Rivaldo Grobler Free State Stars Aktiv 92 / 101 40% 1 11.12.2027 -
Martim Cunha Porto Aktiv 117 / 125 40% 3 10.12.2027 -
Bahia Criciuma Aktiv 119 / 123 40% 5 09.12.2027 -
Fillip Jenssen Riise Stabaek Aktiv 96 / 95 40% 6 09.12.2027 -
Theodor Lundbergh Malmo FF Aktiv 88 / 89 40% 3 09.12.2027 -
Abubacarr Sedi Kinteh Al-Hilal Aktiv 125 / 144 40% 4 08.12.2027 -
Saman Rezaeian Gostaresh Foulad Aktiv 109 / 123 40% 1 08.12.2027 -
Felipe Obradovich Ferro Carril Oeste Aktiv 99 / 113 40% 3 07.12.2027 -
Gonçalo Oliveira Benfica Aktiv 114 / 129 40% 1 05.12.2027 -
Juan Giménez Celta Aktiv 129 / 136 40% 2 04.12.2027 -
Emiliano Bértoli Patronato Aktiv 104 / 89 40% 1 04.12.2027 -
Harrison Armstrong Everton Aktiv 136 / 144 40% 1 04.12.2027 -
Mikkel Hope Haugesund Aktiv 94 / 117 40% 8 01.12.2027 -
Martín Jiménez Audax Italiano Aktiv 109 / 103 40% 2 01.12.2027 -
Agustín Obregón River Plate Aktiv 111 / 133 40% 2 01.12.2027 -
Jorthy Mokio ADO Den Haag Aktiv 126 / 124 40% 2 30.11.2027 -
Mohamed Bendary ENPPI Aktiv 83 / 99 40% 1 30.11.2027 -
Jofre Torrents Ajax Aktiv 138 / 143 40% 2 29.11.2027 -
Olivier Mambwa Young Boys Aktiv 111 / 131 40% 1 29.11.2027 -
Dylan Gorosito Villarreal Aktiv 124 / 121 40% 2 27.11.2027 -
Khalis Merah Toulouse FC Aktiv 133 / 127 40% 4 27.11.2027 -
Ignacio Fernández Boston River Aktiv 102 / 91 40% 4 25.11.2027 -
Eduardo Felicíssimo Sporting CP Aktiv 126 / 117 40% 3 25.11.2027 -
Darryl Bakola Padova Aktiv 107 / 132 40% 1 24.11.2027 -
Olaniyi Saheed Kwara United Aktiv 91 / 88 40% 1 24.11.2027 -
Agustín Medina Valencia Aktiv 114 / 121 40% 1 24.11.2027 -
Hervin Goyes Deportivo Pasto Aktiv 104 / 103 40% 4 23.11.2027 -
Harbor Miller LA Galaxy Aktiv 95 / 113 40% 4 22.11.2027 -
Juan Morán Godoy Cruz Aktiv 112 / 107 40% 6 21.11.2027 -
Avery Appiah Ajax Aktiv 115 / 109 40% 2 20.11.2027 -
Thiago Helguera Braga Aktiv 112 / 125 40% 1 20.11.2027 -
Álvaro Navoni Tigre Aktiv 95 / 99 40% 2 17.11.2027 -
Sam Curtis Cambridge United Aktiv 118 / 121 40% 1 12.11.2027 -
Ulises Giménez River Plate Aktiv 111 / 119 40% 3 10.11.2027 -
Mauro Carrizo Atlético Tucumán Aktiv 98 / 117 40% 4 10.11.2027 -
Tyson Pearce St. Louis CITY SC Aktiv 91 / 92 40% 3 10.11.2027 -
Frankie Westfield Philadelphia Union Aktiv 100 / 107 40% 2 09.11.2027 -
Diego Vargas San Marcos de Arica Aktiv 82 / 95 40% 5 07.11.2027 -
Samuel Martín Millonarios Aktiv 99 / 110 40% 2 07.11.2027 -
Julián Bazán Philadelphia Union Aktiv 104 / 118 40% 3 06.11.2027 -
Aiden Hezarkhani Real Salt Lake Aktiv 85 / 97 40% 2 05.11.2027 -
Celías Ingenthron Vélez Aktiv 110 / 129 40% 8 03.11.2027 -
Yusuf Akçiçek Tottenham Aktiv 128 / 128 40% 5 03.11.2027 -
Almar Grindhaug Haugesund Aktiv 92 / 109 40% 1 03.11.2027 -
Mohamed Bolivar Barranquilla Aktiv 94 / 105 40% 3 31.10.2027 -
Nazareno Roselli Defensa y Justicia Aktiv 108 / 111 40% 2 30.10.2027 -
Salah Eddine Bouziani USM Alger Aktiv 93 / 109 40% 2 29.10.2027 -
Gift Udoh Ikorodu City Aktiv 84 / 85 40% 2 27.10.2027 -
Dominik Chong Qui Atlanta United FC Aktiv 101 / 107 40% 4 26.10.2027 -
Omar Abdelrahim Al Ahly Aktiv 95 / 111 40% 1 26.10.2027 -
Veljko Milosavljević Aston Villa Aktiv 135 / 160 40% 2 24.10.2027 -
Jovan Milosavljević Kalmar FF Aktiv 91 / 109 40% 3 22.10.2027 -
Hosea Michael Remo Stars Aktiv 79 / 83 40% 5 21.10.2027 -
Stanley Wilson AIK Aktiv 93 / 84 40% 1 21.10.2027 -
Ahmed Yasser Ghazl El Mahalla Aktiv 86 / 104 40% 1 21.10.2027 -
Alejandro Almaraz Nueva Chicago Aktiv 110 / 105 40% 3 16.10.2027 -
Uche Jaguar Kwara United Aktiv 84 / 97 40% 1 15.10.2027 -
Moustapha Sémbène Hajer Aktiv 101 / 113 40% 1 14.10.2027 -
Diego León Manchester United Aktiv 123 / 126 40% 1 09.10.2027 -
Juan Cruz Cortazzo Gimnasia La Plata Aktiv 112 / 106 40% 1 04.10.2027 -
André Lucas Sampaio Correa Aktiv 94 / 109 40% 1 04.10.2027 -
Eliás Montiel Werder Bremen Aktiv 146 / 131 40% 2 30.09.2027 -
Benjamin Arthur Brentford Aktiv 136 / 128 40% 1 30.09.2027 -
Matías Gómez Granada Aktiv 124 / 136 40% 1 29.09.2027 -
Malick Yalcouyé Brighton Aktiv 120 / 126 40% 2 28.09.2027 -
Niccolò Fortini Fiorentina Aktiv 122 / 142 40% 1 27.09.2027 -
Gonzalo Escudero Racing Club Aktiv 117 / 118 40% 1 24.09.2027 -
José Correa Deportivo Tachira Aktiv 81 / 91 40% 2 21.09.2027 -
Germán Barbas Penarol Aktiv 106 / 107 40% 1 21.09.2027 -
Marwan Touri Ohod Aktiv 66 / 69 30% 1 / 1m 15.09.2027 -
Hian Rincón Once Caldas Aktiv 85 / 104 40% 1 14.09.2027 -
Santiago Espíndola River Plate Aktiv 109 / 121 40% 1 10.09.2027 -
Zahir Ibarra Defensa y Justicia Aktiv 96 / 98 40% 2 06.09.2027 -
Ángel Aguayo Sol de America Aktiv 82 / 89 40% 1 30.08.2027 -
Tobias Moi Bodo/Glimt Aktiv 106 / 121 40% 2 28.08.2027 -
Gabriel Moscardo Paris Saint-Germain Aktiv 134 / 124 40% 1 26.08.2027 -
Yury Oyarzo Racing Aktiv 85 / 94 40% 1 25.08.2027 -
Vadim Arutyunyan Dnepr Mogilev Aktiv 81 / 106 40% 1 24.08.2027 -
Gopolang Taunyane CR Belouizdad Aktiv 104 / 99 40% 1 18.08.2027 -
Leandro Martins Benfica Aktiv 90 / 106 40% 1 02.06.2027 -
Alfie Cresswell Leeds United Aktiv 98 / 106 40% 1 02.06.2027 -
Fashion Sakala Al Ain Verloren 126 / 126 66% 1 01.06.2027 Befürworten
Shota Shekiladze Akhmat Grozny Verhandlung 110 / 110 66% 1 01.06.2027 Befürworten
Mohau Nkota Al-Ettifaq Aktiv 127 / 133 69% 1 01.06.2027 Befürworten
Kevin Pinto Benfica Aktiv 104 / 92 40% 1 31.05.2027 -
Juan Pablo Noce All Boys Aktiv 107 / 119 40% 1 18.01.2027 -
Oliver Petersen Dinamo Batumi Aktiv 127 / 128 40% 1 18.01.2027 -
Joaquín Bigo Tristán Suárez Aktiv 112 / 102 40% 1 18.01.2027 -
Carlos Zepeda Strogino Aktiv 65 / 75 40% 1 11.01.2027 -
Keagan Tau Ajax Cape Town Aktiv 100 / 111 40% 1 31.12.2026 -